Weather at Ljubljana University Hospital Heliport

Public forecast

Using degrees Celsius for public forecast. Weather courtesy of forecast.io.

Closest aviation weather report (METAR) to Ljubljana University Hospital Heliport

Closest report is Ljubljana Jože Pučnik Airport, 10.5 nm (19.4 km) NNW.

2024/05/30 04:00 (retrieved 33 minutes ago)

LJLJ 300400Z 27001KT 9999 MIFG NSC 10/09 Q1010 NOSIG

Closest aviation forecast (TAF) to Ljubljana University Hospital Heliport

Forecast is more than 6 hours old.

Closest forecast is Bolzano Airport, 134.8 nm (249.7 km) WNW.

2024/05/29 18:35 (retrieved 10 hours ago)

TAF LIPB 292124Z 2918/3018 CNL